To NAV CANADA Home Page Login to a new session Search on AWWS site Feedback and Comments Disclaimer Vers la page française équivalente Tips FAQ What's new on the site To the Forecasts and Observations / NOTAM section To "File a Flight Plan" website Publications and other links Update of the User's profile FIC Telephone Numbers My Weather Data Folder Route Weather Data Regional Weather Data Local Weather Data To the Forecasts and Observations / NOTAM section
Request Generated 10/17/2017 at 01:55:38 UTC . Weather information available at that time is displayed.

METAR/TAF

LLOYDMINSTER/AB    (show WxCam)

METAR CYLL 170100Z 05003KT 050V110 15SM BKN110 OVC230 10/M01 A2968
RMK AC7CI1 SLP071 DENSITY ALT 2400FT=
METAR CYLL 170000Z 15005KT 15SM BKN110 BKN230 10/M01 A2970 RMK AC5CI2
SLP077 DENSITY ALT 2400FT=
METAR CYLL 162300Z 20006KT 15SM FEW110 BKN230 12/M01 A2972 RMK AC2CI4
SLP085 DENSITY ALT 2700FT=

TAF CYLL 162338Z 1700/1712 20008KT P6SM SCT100 BKN230
BECMG 1700/1702 14008KT
FM170600 24010KT P6SM FEW100 SCT250
RMK NXT FCST BY 170600Z=
Your time UTC time
Weather data provided by Environment Canada and NAV CANADA